createdAt,value
2018-07-25T00:14:18.509Z,51.2
2018-07-25T00:31:09.744Z,52.0
2018-07-25T00:48:00.727Z,54.0
2018-07-25T00:58:07.104Z,54.8
2018-07-25T01:14:57.439Z,55.6
2018-07-25T01:28:25.559Z,57.6
2018-07-25T01:45:15.412Z,58.8
2018-07-25T02:02:04.967Z,60.4
2018-07-25T02:18:54.248Z,61.2
2018-07-25T02:35:43.391Z,61.6
2018-07-25T02:52:32.397Z,62.4
2018-07-25T03:09:21.236Z,62.8
2018-07-25T03:26:09.816Z,63.6
2018-07-25T03:42:58.155Z,64.0
2018-07-25T03:59:45.994Z,64.4
2018-07-25T04:16:33.737Z,65.2
2018-07-25T04:33:21.694Z,65.2
2018-07-25T04:50:10.157Z,65.6
2018-07-25T05:06:58.543Z,66.4
2018-07-25T05:23:47.197Z,66.0
2018-07-25T05:37:14.483Z,65.6
2018-07-25T05:54:03.933Z,65.2
2018-07-25T06:07:31.813Z,64.4
2018-07-25T06:24:22.167Z,63.6
2018-07-25T06:37:51.486Z,62.8
2018-07-25T06:51:20.280Z,61.6
2018-07-25T07:01:27.505Z,60.4
2018-07-25T07:18:20.012Z,59.6
2018-07-25T07:31:50.473Z,58.4
2018-07-25T07:48:44.612Z,57.6
2018-07-25T07:58:53.479Z,56.8
2018-07-25T08:15:49.594Z,55.6
2018-07-25T08:24:16.855Z,52.8
2018-07-25T08:41:12.648Z,53.6
2018-07-25T08:51:22.424Z,52.0
2018-07-25T08:58:08.889Z,50.0
2018-07-25T09:15:05.795Z,49.2
2018-07-25T09:25:16.445Z,48.4
2018-07-25T09:42:14.636Z,46.0
2018-07-25T09:57:31.470Z,44.8
2018-07-25T10:14:30.605Z,44.8
2018-07-25T10:26:24.220Z,45.2
2018-07-25T10:43:23.405Z,44.0
2018-07-25T10:56:58.974Z,42.0
2018-07-25T11:13:58.942Z,42.4
2018-07-25T11:31:00.650Z,38.8
2018-07-25T11:47:59.955Z,39.2
2018-07-25T11:54:48.714Z,38.8
2018-07-25T12:08:25.797Z,37.2
2018-07-25T12:25:27.537Z,35.2
2018-07-25T12:42:28.972Z,35.2
2018-07-25T12:50:59.773Z,34.4
2018-07-25T13:08:01.047Z,34.8
2018-07-25T13:25:02.316Z,34.0
2018-07-25T13:33:33.124Z,33.2
2018-07-25T13:50:35.209Z,33.2
2018-07-25T14:07:37.833Z,34.4
2018-07-25T14:24:39.993Z,34.4
2018-07-25T14:41:42.453Z,35.2
2018-07-25T14:58:43.200Z,36.4
2018-07-25T15:15:44.076Z,36.8
2018-07-25T15:32:44.887Z,37.2
2018-07-25T15:49:45.167Z,38.8
2018-07-25T15:56:33.035Z,39.2
2018-07-25T16:13:32.690Z,40.0
2018-07-25T16:28:50.086Z,40.4
2018-07-25T16:42:24.884Z,41.6
2018-07-25T16:59:22.728Z,42.4
2018-07-25T17:16:20.423Z,44.0
2018-07-25T17:26:29.461Z,44.8
2018-07-25T17:36:38.975Z,46.0
2018-07-25T17:53:34.096Z,47.6
2018-07-25T18:10:28.787Z,48.4
2018-07-25T18:27:23.359Z,49.6
2018-07-25T18:44:17.734Z,50.4
2018-07-25T18:54:26.172Z,52.4
2018-07-25T19:07:57.101Z,55.2
2018-07-25T19:21:27.552Z,55.6
2018-07-25T19:38:22.108Z,54.8
2018-07-25T19:55:14.679Z,55.6
2018-07-25T20:12:05.365Z,56.0
2018-07-25T20:28:59.646Z,57.6
2018-07-25T20:45:51.096Z,59.6
2018-07-25T21:02:42.193Z,60.8
2018-07-25T21:19:32.289Z,60.8
2018-07-25T21:36:23.416Z,60.8
2018-07-25T21:53:14.417Z,61.2
2018-07-25T22:10:05.346Z,62.0
2018-07-25T22:26:56.117Z,62.4
2018-07-25T22:43:46.770Z,62.8
2018-07-25T23:00:37.319Z,63.2
2018-07-25T23:17:27.637Z,64.0
2018-07-25T23:34:17.885Z,64.0
2018-07-25T23:51:08.024Z,64.8
